No particular awareness of the weather is required.    There are no Weather-warnings


Meteo18 Weather Cam more information Meteo18 Weather Cam


Thunder radar more information blitzortung!


Rain radar more information rain snow radar


Visit our other weather sites:

Template documentation
and downloads

And another site



Weather Underground History page Text

Daily Summary for November 17, 2017 Units:  English    Metric   Both
« Previous Day
Next Day »
Daily Weekly Monthly Yearly Custom
  High: Low: Average:
Temperature: TemperatureC °F 2.0 °F 6.6 °F
Dew Point: DewpointC °F 1.6 °F 5.6 °F
Humidity: Humidity % 86 % 93 %
Wind Speed: WindSpeedKMH mph 0.0 mph 3.8 mph
Wind Gust: WindSpeedGustKMH mph - -
Wind:- - East
Pressure: PressurehPa in 1026.0 in -
Precipitation: 0.0 in    
Historical Graphs
 
 
Tabular Data for November 17, 2017
Time Temperature Dew Point Pressure Wind Wind Speed Wind Gust Humidity Rainfall Rate (Hourly)
TemperatureC °F DewpointC °F PressurehPa in Calm     Humidity % HourlyPrecipMM in
00:02 2.3 °F 1.9 °F 1026.3 in Calm     97 % 0.0 in
00:07 2.3 °F 1.9 °F 1026.6 in Calm   1.6 mph 97 % 0.0 in
00:17 2.3 °F 1.9 °F 1026.6 in Calm   1.6 mph 97 % 0.0 in
00:22 2.4 °F 2.0 °F 1026.6 in Calm   1.6 mph 97 % 0.0 in
00:27 2.4 °F 2.0 °F 1026.6 in ENE 1.6 mph 3.2 mph 97 % 0.0 in
00:32 2.4 °F 2.0 °F 1026.6 in Calm   3.2 mph 97 % 0.0 in
00:42 2.5 °F 2.1 °F 1026.6 in ENE 3.2 mph 3.2 mph 97 % 0.0 in
00:52 2.6 °F 2.2 °F 1026.6 in NE 1.6 mph 4.8 mph 97 % 0.0 in
00:57 2.6 °F 2.2 °F 1026.6 in Calm   4.8 mph 97 % 0.0 in
01:02 2.6 °F 2.2 °F 1026.6 in Calm   4.8 mph 97 % 0.0 in
01:12 2.7 °F 2.4 °F 1026.6 in Calm   3.2 mph 98 % 0.0 in
01:22 2.7 °F 2.4 °F 1026.6 in NE 1.6 mph 4.8 mph 98 % 0.0 in
01:27 2.7 °F 2.3 °F 1026.3 in Calm   4.8 mph 97 % 0.0 in
01:32 2.7 °F 2.4 °F 1026.3 in NNE 1.6 mph 4.8 mph 98 % 0.0 in
01:37 2.7 °F 2.4 °F 1026.3 in NE 1.6 mph 4.8 mph 98 % 0.0 in
01:42 2.7 °F 2.4 °F 1026.3 in NNE 1.6 mph 4.8 mph 98 % 0.0 in
01:52 2.8 °F 2.5 °F 1026.3 in NE 1.6 mph 4.8 mph 98 % 0.0 in
02:02 2.8 °F 2.5 °F 1026.3 in Calm   4.8 mph 98 % 0.0 in
02:12 2.9 °F 2.6 °F 1026.3 in Calm   3.2 mph 98 % 0.0 in
02:17 2.9 °F 2.6 °F 1026.3 in NNE 1.6 mph 3.2 mph 98 % 0.0 in
02:22 2.4 °F 2.4 °F 1026.3 in Calm   6.4 mph 100 % 0.0 in
02:32 2.4 °F 2.4 °F 1026.3 in Calm   6.4 mph 100 % 0.0 in
08:47 2.1 °F 1.7 °F 1027.3 in Calm     97 % 0.0 in
08:52 2.0 °F 1.6 °F 1027.3 in Calm     97 % 0.0 in
08:57 2.0 °F 1.6 °F 1027.3 in Calm   1.6 mph 97 % 0.0 in
09:02 2.0 °F 1.6 °F 1027.3 in Calm   1.6 mph 97 % 0.0 in
09:07 2.1 °F 1.7 °F 1027.3 in Calm   1.6 mph 97 % 0.0 in
09:12 2.2 °F 1.9 °F 1027.3 in Calm   1.6 mph 98 % 0.0 in
09:17 2.2 °F 1.9 °F 1027.3 in Calm   1.6 mph 98 % 0.0 in
09:22 2.3 °F 2.0 °F 1027.3 in Calm   1.6 mph 98 % 0.0 in
09:32 2.5 °F 2.2 °F 1027.3 in Calm   1.6 mph 98 % 0.0 in
09:37 2.8 °F 2.5 °F 1027.3 in Calm   1.6 mph 98 % 0.0 in
09:42 2.7 °F 2.4 °F 1027.3 in Calm   1.6 mph 98 % 0.0 in
09:47 2.8 °F 2.5 °F 1027.3 in Calm   1.6 mph 98 % 0.0 in
09:52 2.9 °F 2.6 °F 1027.3 in Calm   1.6 mph 98 % 0.0 in
09:57 3.1 °F 2.8 °F 1027.3 in Calm   1.6 mph 98 % 0.0 in
10:02 3.1 °F 2.8 °F 1027.3 in ENE 1.6 mph 1.6 mph 98 % 0.0 in
10:12 3.4 °F 3.1 °F 1027.7 in NNE 1.6 mph 3.2 mph 98 % 0.0 in
10:17 3.4 °F 3.1 °F 1027.7 in ENE 1.6 mph 3.2 mph 98 % 0.0 in
10:22 3.6 °F 3.3 °F 1027.7 in NE 1.6 mph 3.2 mph 98 % 0.0 in
10:27 3.6 °F 3.3 °F 1027.7 in Calm   3.2 mph 98 % 0.0 in
10:32 3.6 °F 3.3 °F 1027.7 in Calm   3.2 mph 98 % 0.0 in
10:37 3.9 °F 3.6 °F 1027.3 in NE 1.6 mph 3.2 mph 98 % 0.0 in
10:42 4.1 °F 3.8 °F 1027.3 in Calm   3.2 mph 98 % 0.0 in
10:47 4.4 °F 4.1 °F 1027.3 in Calm   3.2 mph 98 % 0.0 in
10:52 4.5 °F 4.2 °F 1027.3 in Calm   3.2 mph 98 % 0.0 in
10:57 4.7 °F 4.4 °F 1027.3 in Calm   3.2 mph 98 % 0.0 in
11:02 4.8 °F 4.5 °F 1027.3 in NE 1.6 mph 3.2 mph 98 % 0.0 in
11:07 4.9 °F 4.6 °F 1027.7 in Calm   4.8 mph 98 % 0.0 in
11:12 5.1 °F 4.8 °F 1027.7 in ENE 6.4 mph 6.4 mph 98 % 0.0 in
11:17 5.2 °F 4.9 °F 1027.7 in ENE 9.7 mph 17.7 mph 98 % 0.0 in
11:22 5.3 °F 5.0 °F 1027.3 in NE 9.7 mph 17.7 mph 98 % 0.0 in
11:27 5.3 °F 5.0 °F 1027.3 in NE 3.2 mph 17.7 mph 98 % 0.0 in
11:32 5.5 °F 5.2 °F 1027.3 in NNE 9.7 mph 17.7 mph 98 % 0.0 in
11:42 5.9 °F 5.6 °F 1027.3 in NNE 14.5 mph 20.9 mph 98 % 0.0 in
11:47 5.9 °F 5.5 °F 1027.3 in NE 19.3 mph 22.5 mph 97 % 0.0 in
11:52 5.9 °F 5.5 °F 1027.3 in NE 4.8 mph 22.5 mph 97 % 0.0 in
11:57 6.1 °F 5.7 °F 1027.0 in NE 14.5 mph 24.1 mph 97 % 0.0 in
12:02 6.2 °F 5.6 °F 1027.0 in NE 9.7 mph 24.1 mph 96 % 0.0 in
12:07 6.3 °F 5.7 °F 1027.0 in NE 1.6 mph 20.9 mph 96 % 0.0 in
12:12 6.6 °F 5.9 °F 1027.0 in North 11.3 mph 20.9 mph 95 % 0.0 in
12:17 6.8 °F 6.1 °F 1027.0 in NNE 12.9 mph 20.9 mph 95 % 0.0 in
12:22 6.8 °F 5.9 °F 1027.0 in NNE 12.9 mph 20.9 mph 94 % 0.0 in
12:42 7.2 °F 6.1 °F 1026.6 in NNE 3.2 mph 20.9 mph 93 % 0.0 in
12:47 7.2 °F 6.0 °F 1026.6 in NE 8.0 mph 17.7 mph 92 % 0.0 in
12:52 7.2 °F 6.0 °F 1026.6 in NNE 9.7 mph 17.7 mph 92 % 0.0 in
13:02 7.4 °F 6.2 °F 1026.6 in NE 1.6 mph 11.3 mph 92 % 0.0 in
13:12 7.8 °F 6.6 °F 1027.0 in NE 4.8 mph 11.3 mph 92 % 0.0 in
13:17 7.9 °F 6.5 °F 1026.6 in NE 6.4 mph 9.7 mph 91 % 0.0 in
13:27 8.2 °F 6.8 °F 1026.6 in NNE 4.8 mph 11.3 mph 91 % 0.0 in
13:32 8.3 °F 6.8 °F 1026.6 in East 4.8 mph 11.3 mph 90 % 0.0 in
13:42 8.5 °F 7.0 °F 1026.6 in NE 4.8 mph 14.5 mph 90 % 0.0 in
13:52 8.9 °F 7.2 °F 1026.6 in NE 11.3 mph 14.5 mph 89 % 0.0 in
13:57 9.1 °F 7.4 °F 1026.3 in ENE 3.2 mph 14.5 mph 89 % 0.0 in
14:02 9.1 °F 7.4 °F 1026.3 in NE 1.6 mph 14.5 mph 89 % 0.0 in
14:12 9.2 °F 7.5 °F 1026.3 in East 6.4 mph 16.1 mph 89 % 0.0 in
14:17 9.2 °F 7.3 °F 1026.3 in ENE 1.6 mph 16.1 mph 88 % 0.0 in
14:22 9.2 °F 7.3 °F 1026.3 in East 3.2 mph 16.1 mph 88 % 0.0 in
14:32 9.3 °F 7.4 °F 1026.3 in NE 6.4 mph 9.7 mph 88 % 0.0 in
14:37 9.3 °F 7.4 °F 1026.3 in North 4.8 mph 11.3 mph 88 % 0.0 in
14:42 9.3 °F 7.4 °F 1026.3 in ENE 4.8 mph 12.9 mph 88 % 0.0 in
14:52 9.4 °F 7.5 °F 1026.0 in NE 6.4 mph 9.7 mph 88 % 0.0 in
14:57 9.4 °F 7.5 °F 1026.0 in ENE 1.6 mph 11.3 mph 88 % 0.0 in
15:02 9.4 °F 7.5 °F 1026.0 in NE 8.0 mph 11.3 mph 88 % 0.0 in
15:07 9.4 °F 7.5 °F 1026.0 in NE 8.0 mph 11.3 mph 88 % 0.0 in
15:12 9.4 °F 7.5 °F 1026.0 in NE 4.8 mph 11.3 mph 88 % 0.0 in
15:17 9.4 °F 7.5 °F 1026.0 in NE 4.8 mph 11.3 mph 88 % 0.0 in
15:22 9.6 °F 7.7 °F 1026.0 in NNE 4.8 mph 9.7 mph 88 % 0.0 in
15:27 9.8 °F 7.9 °F 1026.0 in North 4.8 mph 8.0 mph 88 % 0.0 in
15:32 10.0 °F 8.1 °F 1026.0 in NE 6.4 mph 9.7 mph 88 % 0.0 in
15:37 10.2 °F 8.1 °F 1026.0 in NE 3.2 mph 11.3 mph 87 % 0.0 in
15:42 10.2 °F 8.1 °F 1026.0 in ENE 3.2 mph 11.3 mph 87 % 0.0 in
15:47 10.1 °F 7.9 °F 1026.0 in NE 3.2 mph 11.3 mph 86 % 0.0 in
15:52 10.0 °F 7.9 °F 1026.0 in North 3.2 mph 9.7 mph 87 % 0.0 in
15:57 9.9 °F 7.8 °F 1026.0 in NE 4.8 mph 9.7 mph 87 % 0.0 in
16:02 9.8 °F 7.7 °F 1026.0 in NE 3.2 mph 9.7 mph 87 % 0.0 in
16:12 10.0 °F 7.9 °F 1026.0 in NE 3.2 mph 9.7 mph 87 % 0.0 in
16:17 10.1 °F 8.0 °F 1026.0 in NE 6.4 mph 9.7 mph 87 % 0.0 in
16:22 10.0 °F 7.9 °F 1026.0 in NNE 4.8 mph 9.7 mph 87 % 0.0 in
16:32 9.8 °F 7.7 °F 1026.0 in NNE 3.2 mph 9.7 mph 87 % 0.0 in
16:37 9.8 °F 7.7 °F 1026.0 in NE 6.4 mph 11.3 mph 87 % 0.0 in
16:42 9.7 °F 7.8 °F 1026.0 in NE 8.0 mph 11.3 mph 88 % 0.0 in
16:47 9.7 °F 7.8 °F 1026.0 in NE 3.2 mph 14.5 mph 88 % 0.0 in
16:52 9.6 °F 7.7 °F 1026.0 in NE 9.7 mph 14.5 mph 88 % 0.0 in
16:57 9.6 °F 7.7 °F 1026.0 in NE 8.0 mph 14.5 mph 88 % 0.0 in
17:02 9.5 °F 7.6 °F 1026.0 in NNW 8.0 mph 11.3 mph 88 % 0.0 in
17:07 9.4 °F 7.7 °F 1026.0 in NNE 4.8 mph 14.5 mph 89 % 0.0 in
17:12 9.3 °F 7.6 °F 1026.0 in NNE 8.0 mph 14.5 mph 89 % 0.0 in
17:22 9.1 °F 7.4 °F 1026.0 in NNW 8.0 mph 14.5 mph 89 % 0.0 in
17:27 8.9 °F 7.3 °F 1026.3 in NW 3.2 mph 12.9 mph 90 % 0.0 in
17:32 8.9 °F 7.3 °F 1026.3 in NNE 4.8 mph 12.9 mph 90 % 0.0 in
17:37 8.9 °F 7.3 °F 1026.3 in NE 8.0 mph 14.5 mph 90 % 0.0 in
17:42 8.8 °F 7.2 °F 1026.3 in East 6.4 mph 14.5 mph 90 % 0.0 in
17:52 8.8 °F 7.4 °F 1026.3 in NNE 4.8 mph 14.5 mph 91 % 0.0 in
17:57 8.7 °F 7.3 °F 1026.0 in NNE 6.4 mph 12.9 mph 91 % 0.0 in
18:12 8.6 °F 7.4 °F 1026.0 in NW 3.2 mph 11.3 mph 92 % 0.0 in
18:17 8.6 °F 7.4 °F 1026.0 in NW 1.6 mph 11.3 mph 92 % 0.0 in
18:22 8.6 °F 7.4 °F 1026.0 in Calm   12.9 mph 92 % 0.0 in
18:32 8.4 °F 7.2 °F 1026.0 in NNW 3.2 mph 11.3 mph 92 % 0.0 in
18:42 8.4 °F 7.2 °F 1026.3 in ENE 1.6 mph 8.0 mph 92 % 0.0 in
18:47 8.4 °F 7.2 °F 1026.3 in ENE 1.6 mph 11.3 mph 92 % 0.0 in
18:52 8.4 °F 7.2 °F 1026.3 in NNW 4.8 mph 11.3 mph 92 % 0.0 in
18:57 8.3 °F 7.1 °F 1026.3 in NNE 3.2 mph 9.7 mph 92 % 0.0 in
19:02 8.3 °F 6.9 °F 1026.3 in ENE 4.8 mph 14.5 mph 91 % 0.0 in
19:12 8.3 °F 6.9 °F 1026.3 in NNE 4.8 mph 19.3 mph 91 % 0.0 in
19:17 8.3 °F 6.9 °F 1026.3 in NNW 6.4 mph 19.3 mph 91 % 0.0 in
19:22 8.3 °F 7.1 °F 1026.3 in North 1.6 mph 12.9 mph 92 % 0.0 in
19:32 8.2 °F 7.0 °F 1026.3 in NNE 4.8 mph 12.9 mph 92 % 0.0 in
19:37 8.2 °F 7.0 °F 1026.3 in North 1.6 mph 11.3 mph 92 % 0.0 in
19:42 8.2 °F 7.0 °F 1026.6 in NE 11.3 mph 11.3 mph 92 % 0.0 in
19:47 8.2 °F 7.0 °F 1026.6 in North 1.6 mph 11.3 mph 92 % 0.0 in
19:57 8.1 °F 6.9 °F 1026.6 in NE 4.8 mph 11.3 mph 92 % 0.0 in
20:02 8.1 °F 6.9 °F 1026.6 in NE 3.2 mph 8.0 mph 92 % 0.0 in
20:12 8.0 °F 6.8 °F 1026.6 in NE 3.2 mph 8.0 mph 92 % 0.0 in
20:17 8.0 °F 6.8 °F 1026.6 in NE 3.2 mph 9.7 mph 92 % 0.0 in
20:22 7.9 °F 6.7 °F 1026.6 in North 6.4 mph 11.3 mph 92 % 0.0 in
20:32 7.9 °F 6.7 °F 1026.6 in NNE 4.8 mph 11.3 mph 92 % 0.0 in
20:42 7.9 °F 6.8 °F 1026.6 in NE 3.2 mph 9.7 mph 93 % 0.0 in
20:47 7.9 °F 6.8 °F 1026.6 in NNE 6.4 mph 8.0 mph 93 % 0.0 in
20:52 7.9 °F 6.8 °F 1026.6 in NNW 4.8 mph 12.9 mph 93 % 0.0 in
20:57 7.9 °F 6.8 °F 1026.6 in North 1.6 mph 12.9 mph 93 % 0.0 in
21:02 7.8 °F 6.7 °F 1026.6 in North 9.7 mph 12.9 mph 93 % 0.0 in
21:12 7.8 °F 6.7 °F 1026.6 in NNE 4.8 mph 17.7 mph 93 % 0.0 in
21:17 7.8 °F 6.7 °F 1026.6 in NNE 1.6 mph 17.7 mph 93 % 0.0 in
21:22 7.8 °F 6.7 °F 1026.6 in NNE 4.8 mph 17.7 mph 93 % 0.0 in
21:27 7.8 °F 6.7 °F 1026.6 in NNW 3.2 mph 11.3 mph 93 % 0.0 in
21:32 7.7 °F 6.8 °F 1026.6 in North 1.6 mph 9.7 mph 94 % 0.0 in
21:37 7.7 °F 6.8 °F 1026.6 in Calm   11.3 mph 94 % 0.0 in
21:42 7.7 °F 6.8 °F 1026.6 in NNE 3.2 mph 11.3 mph 94 % 0.0 in
21:47 7.7 °F 6.8 °F 1026.6 in North 3.2 mph 11.3 mph 94 % 0.0 in
21:52 7.7 °F 6.8 °F 1026.6 in Calm   8.0 mph 94 % 0.0 in
21:57 7.6 °F 6.7 °F 1026.6 in North 1.6 mph 8.0 mph 94 % 0.0 in
22:02 7.6 °F 6.7 °F 1026.6 in Calm   11.3 mph 94 % 0.0 in
22:12 7.6 °F 6.7 °F 1026.6 in NNE 11.3 mph 11.3 mph 94 % 0.0 in
22:22 7.6 °F 6.9 °F 1026.6 in Calm   12.9 mph 95 % 0.0 in
22:27 7.5 °F 6.8 °F 1026.6 in NNW 1.6 mph 12.9 mph 95 % 0.0 in
22:37 7.5 °F 6.8 °F 1026.6 in NNW 1.6 mph 11.3 mph 95 % 0.0 in
22:42 7.5 °F 6.8 °F 1027.0 in NW 4.8 mph 11.3 mph 95 % 0.0 in
22:47 7.4 °F 6.7 °F 1027.0 in North 6.4 mph 9.7 mph 95 % 0.0 in
22:52 7.4 °F 6.7 °F 1027.0 in NNW 4.8 mph 12.9 mph 95 % 0.0 in
22:57 7.4 °F 6.7 °F 1026.6 in North 3.2 mph 12.9 mph 95 % 0.0 in
23:02 7.4 °F 6.7 °F 1026.6 in NNE 6.4 mph 12.9 mph 95 % 0.0 in
23:07 7.3 °F 6.6 °F 1026.6 in NNE 3.2 mph 12.9 mph 95 % 0.0 in
23:12 7.3 °F 6.6 °F 1027.0 in NE 1.6 mph 11.3 mph 95 % 0.0 in
23:22 7.2 °F 6.3 °F 1026.6 in NE 3.2 mph 9.7 mph 94 % 0.0 in
23:32 7.2 °F 6.3 °F 1026.6 in NNE 1.6 mph 11.3 mph 94 % 0.0 in
23:37 7.1 °F 6.2 °F 1026.6 in NNW 3.2 mph 11.3 mph 94 % 0.0 in
23:42 7.1 °F 6.2 °F 1026.6 in NNW 3.2 mph 11.3 mph 94 % 0.0 in
23:47 7.1 °F 6.2 °F 1026.6 in NE 6.4 mph 11.3 mph 94 % 0.0 in
23:52 7.1 °F 6.2 °F 1026.6 in NNE 8.0 mph 9.7 mph 94 % 0.0 in
Meteo18
Compliments of Weather Underground - 4 mb

Script developed by  Jim McMurry - jmcmurry@mwt.net Adapted for the template by  Wim van der Kuil - Leuven-Template.eu

You find our weather info also at:

European Weather Network

Weather Underground

Equipment we use:

Weather-station
Davis Vue

Weather-program
Meteobridge

Weather-server
Raspberry PI 2 B+

Provider
1 and 1

Davis Vue

Meteobridge

Raspberry PI 2 B+

1 and 1